sensor_id;sensor_type;location;lat;lon;timestamp;pressure;altitude;pressure_sealevel;temperature;humidity
52291;BME280;39663;45.432;28.050;2022-10-31T00:00:12;101578.72;;;21.55;32.38
52291;BME280;39663;45.432;28.050;2022-10-31T00:00:46;101579.95;;;21.93;32.17
52291;BME280;39663;45.432;28.050;2022-10-31T00:01:21;101577.99;;;21.49;32.38
52291;BME280;39663;45.432;28.050;2022-10-31T00:01:56;101579.31;;;21.79;32.15
52291;BME280;39663;45.432;28.050;2022-10-31T00:02:29;101577.13;;;21.75;32.09
52291;BME280;39663;45.432;28.050;2022-10-31T00:03:01;101578.07;;;22.16;31.96
52291;BME280;39663;45.432;28.050;2022-10-31T00:03:33;101578.41;;;22.00;31.85
52291;BME280;39663;45.432;28.050;2022-10-31T00:04:07;101575.98;;;22.22;31.76
52291;BME280;39663;45.432;28.050;2022-10-31T00:04:41;101578.58;;;22.21;31.79
52291;BME280;39663;45.432;28.050;2022-10-31T00:05:14;101576.99;;;22.19;31.61
52291;BME280;39663;45.432;28.050;2022-10-31T00:05:47;101575.21;;;22.17;31.85
52291;BME280;39663;45.432;28.050;2022-10-31T00:06:21;101575.54;;;22.44;31.77
52291;BME280;39663;45.432;28.050;2022-10-31T00:06:53;101572.97;;;21.90;31.86
52291;BME280;39663;45.432;28.050;2022-10-31T00:07:25;101577.56;;;21.93;31.92
52291;BME280;39663;45.432;28.050;2022-10-31T00:07:58;101574.68;;;22.02;31.92
52291;BME280;39663;45.432;28.050;2022-10-31T00:08:30;101576.48;;;22.13;31.75
52291;BME280;39663;45.432;28.050;2022-10-31T00:09:03;101576.46;;;22.27;31.60
52291;BME280;39663;45.432;28.050;2022-10-31T00:09:37;101576.84;;;22.19;31.60
52291;BME280;39663;45.432;28.050;2022-10-31T00:10:10;101574.38;;;22.09;31.74
52291;BME280;39663;45.432;28.050;2022-10-31T00:10:46;101572.38;;;22.05;31.92
52291;BME280;39663;45.432;28.050;2022-10-31T00:11:20;101576.04;;;21.68;32.17
52291;BME280;39663;45.432;28.050;2022-10-31T00:11:53;101572.43;;;21.52;32.44
52291;BME280;39663;45.432;28.050;2022-10-31T00:12:26;101572.56;;;21.60;32.35
52291;BME280;39663;45.432;28.050;2022-10-31T00:12:58;101571.64;;;22.11;32.01
52291;BME280;39663;45.432;28.050;2022-10-31T00:13:32;101573.78;;;22.50;31.80
52291;BME280;39663;45.432;28.050;2022-10-31T00:14:06;101573.39;;;21.93;31.74
52291;BME280;39663;45.432;28.050;2022-10-31T00:14:39;101573.15;;;22.16;31.88
52291;BME280;39663;45.432;28.050;2022-10-31T00:15:12;101572.19;;;22.08;31.77
52291;BME280;39663;45.432;28.050;2022-10-31T00:15:45;101573.87;;;22.18;31.74
52291;BME280;39663;45.432;28.050;2022-10-31T00:16:22;101572.02;;;22.07;31.67
52291;BME280;39663;45.432;28.050;2022-10-31T00:16:54;101572.19;;;22.22;31.79
52291;BME280;39663;45.432;28.050;2022-10-31T00:17:26;101570.84;;;22.23;31.82
52291;BME280;39663;45.432;28.050;2022-10-31T00:17:59;101570.05;;;22.04;31.81
52291;BME280;39663;45.432;28.050;2022-10-31T00:18:31;101570.18;;;22.23;31.83
52291;BME280;39663;45.432;28.050;2022-10-31T00:19:06;101568.32;;;22.17;31.89
52291;BME280;39663;45.432;28.050;2022-10-31T00:19:38;101569.47;;;22.15;31.77
52291;BME280;39663;45.432;28.050;2022-10-31T00:20:10;101568.94;;;22.55;31.71
52291;BME280;39663;45.432;28.050;2022-10-31T00:20:43;101568.35;;;22.44;31.64
52291;BME280;39663;45.432;28.050;2022-10-31T00:21:16;101567.15;;;22.40;31.60
52291;BME280;39663;45.432;28.050;2022-10-31T00:21:52;101568.46;;;22.76;31.53
52291;BME280;39663;45.432;28.050;2022-10-31T00:22:26;101567.20;;;22.37;31.49
52291;BME280;39663;45.432;28.050;2022-10-31T00:23:00;101567.68;;;22.17;31.49
52291;BME280;39663;45.432;28.050;2022-10-31T00:23:32;101566.50;;;22.68;31.34
52291;BME280;39663;45.432;28.050;2022-10-31T00:24:10;101566.50;;;22.71;31.36
52291;BME280;39663;45.432;28.050;2022-10-31T00:24:43;101565.39;;;22.54;31.24
52291;BME280;39663;45.432;28.050;2022-10-31T00:25:15;101566.18;;;22.43;31.32
52291;BME280;39663;45.432;28.050;2022-10-31T00:25:48;101566.46;;;22.37;31.41
52291;BME280;39663;45.432;28.050;2022-10-31T00:26:21;101565.98;;;22.49;31.39
52291;BME280;39663;45.432;28.050;2022-10-31T00:26:54;101567.83;;;22.64;31.34
52291;BME280;39663;45.432;28.050;2022-10-31T00:27:26;101567.98;;;22.57;31.24
52291;BME280;39663;45.432;28.050;2022-10-31T00:28:00;101568.45;;;22.66;31.10
52291;BME280;39663;45.432;28.050;2022-10-31T00:28:33;101562.93;;;22.67;31.07
52291;BME280;39663;45.432;28.050;2022-10-31T00:29:05;101562.93;;;22.72;31.04
52291;BME280;39663;45.432;28.050;2022-10-31T00:29:39;101561.96;;;22.71;31.01
52291;BME280;39663;45.432;28.050;2022-10-31T00:30:12;101562.17;;;22.72;31.01
52291;BME280;39663;45.432;28.050;2022-10-31T00:30:44;101564.38;;;23.15;30.92
52291;BME280;39663;45.432;28.050;2022-10-31T00:31:16;101566.00;;;22.80;30.87
52291;BME280;39663;45.432;28.050;2022-10-31T00:31:51;101565.87;;;22.79;30.95
52291;BME280;39663;45.432;28.050;2022-10-31T00:32:28;101565.44;;;22.76;30.89
52291;BME280;39663;45.432;28.050;2022-10-31T00:33:00;101566.51;;;22.78;30.92
52291;BME280;39663;45.432;28.050;2022-10-31T00:33:35;101567.01;;;22.58;30.99
52291;BME280;39663;45.432;28.050;2022-10-31T00:34:10;101568.64;;;22.77;31.00
52291;BME280;39663;45.432;28.050;2022-10-31T00:34:42;101567.82;;;22.77;30.95
52291;BME280;39663;45.432;28.050;2022-10-31T00:35:14;101566.53;;;23.01;30.95
52291;BME280;39663;45.432;28.050;2022-10-31T00:35:51;101566.85;;;22.60;30.94
52291;BME280;39663;45.432;28.050;2022-10-31T00:36:23;101564.77;;;22.79;31.00
52291;BME280;39663;45.432;28.050;2022-10-31T00:36:55;101565.58;;;22.76;30.96
52291;BME280;39663;45.432;28.050;2022-10-31T00:37:28;101564.97;;;22.80;30.95
52291;BME280;39663;45.432;28.050;2022-10-31T00:38:00;101563.96;;;22.86;30.87
52291;BME280;39663;45.432;28.050;2022-10-31T00:38:32;101564.07;;;22.90;30.82
52291;BME280;39663;45.432;28.050;2022-10-31T00:39:07;101562.62;;;22.87;30.78
52291;BME280;39663;45.432;28.050;2022-10-31T00:39:38;101563.66;;;22.93;30.81
52291;BME280;39663;45.432;28.050;2022-10-31T00:40:11;101564.44;;;22.95;30.78
52291;BME280;39663;45.432;28.050;2022-10-31T00:40:43;101565.29;;;22.95;30.84
52291;BME280;39663;45.432;28.050;2022-10-31T00:41:15;101565.51;;;22.95;30.81
52291;BME280;39663;45.432;28.050;2022-10-31T00:41:47;101565.40;;;22.92;30.79
52291;BME280;39663;45.432;28.050;2022-10-31T00:42:19;101565.11;;;22.97;30.81
52291;BME280;39663;45.432;28.050;2022-10-31T00:42:50;101564.27;;;22.97;30.79
52291;BME280;39663;45.432;28.050;2022-10-31T00:43:22;101564.30;;;22.99;30.77
52291;BME280;39663;45.432;28.050;2022-10-31T00:43:53;101563.82;;;23.01;30.81
52291;BME280;39663;45.432;28.050;2022-10-31T00:44:26;101564.83;;;23.01;30.81
52291;BME280;39663;45.432;28.050;2022-10-31T00:44:58;101562.79;;;22.36;30.90
52291;BME280;39663;45.432;28.050;2022-10-31T00:45:33;101567.36;;;22.40;31.21
52291;BME280;39663;45.432;28.050;2022-10-31T00:46:06;101567.38;;;22.34;31.36
52291;BME280;39663;45.432;28.050;2022-10-31T00:46:38;101568.88;;;22.64;31.23
52291;BME280;39663;45.432;28.050;2022-10-31T00:47:11;101566.23;;;22.69;31.20
52291;BME280;39663;45.432;28.050;2022-10-31T00:47:43;101565.95;;;22.73;31.16
52291;BME280;39663;45.432;28.050;2022-10-31T00:48:16;101565.64;;;22.67;31.23
52291;BME280;39663;45.432;28.050;2022-10-31T00:48:49;101564.69;;;22.69;31.16
52291;BME280;39663;45.432;28.050;2022-10-31T00:49:24;101564.35;;;22.76;31.17
52291;BME280;39663;45.432;28.050;2022-10-31T00:49:57;101564.52;;;22.80;31.11
52291;BME280;39663;45.432;28.050;2022-10-31T00:50:29;101563.33;;;22.78;31.12
52291;BME280;39663;45.432;28.050;2022-10-31T00:51:02;101562.82;;;22.74;31.23
52291;BME280;39663;45.432;28.050;2022-10-31T00:51:36;101563.53;;;22.93;31.26
52291;BME280;39663;45.432;28.050;2022-10-31T00:52:09;101560.94;;;22.77;31.24
52291;BME280;39663;45.432;28.050;2022-10-31T00:52:44;101562.20;;;22.68;31.32
52291;BME280;39663;45.432;28.050;2022-10-31T00:53:17;101560.94;;;22.70;31.31
52291;BME280;39663;45.432;28.050;2022-10-31T00:53:50;101562.87;;;22.67;31.29
52291;BME280;39663;45.432;28.050;2022-10-31T00:54:22;101562.46;;;22.69;31.32
52291;BME280;39663;45.432;28.050;2022-10-31T00:54:56;101561.67;;;22.84;31.38
52291;BME280;39663;45.432;28.050;2022-10-31T00:55:28;101563.74;;;22.86;31.41
52291;BME280;39663;45.432;28.050;2022-10-31T00:56:01;101567.79;;;22.60;31.49
52291;BME280;39663;45.432;28.050;2022-10-31T00:56:33;101563.59;;;22.82;31.48
52291;BME280;39663;45.432;28.050;2022-10-31T00:57:06;101565.88;;;22.57;31.53
52291;BME280;39663;45.432;28.050;2022-10-31T00:57:39;101566.88;;;22.49;31.62
52291;BME280;39663;45.432;28.050;2022-10-31T00:58:11;101568.38;;;22.52;31.65
52291;BME280;39663;45.432;28.050;2022-10-31T00:58:43;101569.22;;;22.48;31.67
52291;BME280;39663;45.432;28.050;2022-10-31T01:07:39;101568.47;;;22.04;32.59
52291;BME280;39663;45.432;28.050;2022-10-31T01:08:10;101568.57;;;22.14;32.71
52291;BME280;39663;45.432;28.050;2022-10-31T01:08:42;101569.97;;;21.97;32.71
52291;BME280;39663;45.432;28.050;2022-10-31T01:09:14;101571.14;;;22.16;32.75
52291;BME280;39663;45.432;28.050;2022-10-31T01:09:45;101569.21;;;21.85;32.80
52291;BME280;39663;45.432;28.050;2022-10-31T01:10:17;101571.33;;;21.95;32.87
52291;BME280;39663;45.432;28.050;2022-10-31T01:11:03;101573.39;;;21.94;32.94
52291;BME280;39663;45.432;28.050;2022-10-31T01:11:35;101569.85;;;21.98;32.93
52291;BME280;39663;45.432;28.050;2022-10-31T01:12:07;101570.55;;;21.90;32.91
52291;BME280;39663;45.432;28.050;2022-10-31T01:12:40;101569.16;;;21.72;32.90
52291;BME280;39663;45.432;28.050;2022-10-31T01:13:11;101568.88;;;22.04;32.96
52291;BME280;39663;45.432;28.050;2022-10-31T01:13:44;101567.96;;;21.66;33.07
52291;BME280;39663;45.432;28.050;2022-10-31T01:14:16;101567.21;;;21.91;33.17
52291;BME280;39663;45.432;28.050;2022-10-31T01:14:47;101567.08;;;21.74;33.17
52291;BME280;39663;45.432;28.050;2022-10-31T01:15:21;101566.07;;;21.72;33.26
52291;BME280;39663;45.432;28.050;2022-10-31T01:15:54;101565.83;;;21.94;33.26
52291;BME280;39663;45.432;28.050;2022-10-31T01:16:27;101566.07;;;21.83;33.18
52291;BME280;39663;45.432;28.050;2022-10-31T01:16:58;101566.17;;;21.98;33.13
52291;BME280;39663;45.432;28.050;2022-10-31T01:17:30;101564.98;;;21.75;33.24
52291;BME280;39663;45.432;28.050;2022-10-31T01:18:01;101565.67;;;21.91;33.28
52291;BME280;39663;45.432;28.050;2022-10-31T01:18:33;101566.45;;;21.85;33.17
52291;BME280;39663;45.432;28.050;2022-10-31T01:19:04;101565.71;;;21.93;33.18
52291;BME280;39663;45.432;28.050;2022-10-31T01:19:36;101565.11;;;21.63;33.32
52291;BME280;39663;45.432;28.050;2022-10-31T01:20:09;101565.11;;;21.86;33.27
52291;BME280;39663;45.432;28.050;2022-10-31T01:20:41;101563.45;;;21.96;33.22
52291;BME280;39663;45.432;28.050;2022-10-31T01:21:14;101563.24;;;21.97;33.23
52291;BME280;39663;45.432;28.050;2022-10-31T01:21:46;101562.88;;;21.89;33.23
52291;BME280;39663;45.432;28.050;2022-10-31T01:22:17;101565.48;;;21.69;33.32
52291;BME280;39663;45.432;28.050;2022-10-31T01:22:48;101564.01;;;21.82;33.31
52291;BME280;39663;45.432;28.050;2022-10-31T01:23:20;101566.40;;;21.86;33.33
52291;BME280;39663;45.432;28.050;2022-10-31T01:23:53;101566.70;;;21.82;33.17
52291;BME280;39663;45.432;28.050;2022-10-31T01:24:25;101568.81;;;21.85;33.05
52291;BME280;39663;45.432;28.050;2022-10-31T01:24:56;101568.69;;;22.11;33.02
52291;BME280;39663;45.432;28.050;2022-10-31T01:25:28;101569.38;;;21.93;33.00
52291;BME280;39663;45.432;28.050;2022-10-31T01:26:01;101570.20;;;22.04;33.03
52291;BME280;39663;45.432;28.050;2022-10-31T01:26:33;101569.01;;;21.99;33.15
52291;BME280;39663;45.432;28.050;2022-10-31T01:27:04;101567.75;;;21.90;33.20
52291;BME280;39663;45.432;28.050;2022-10-31T01:27:36;101569.28;;;21.59;33.12
52291;BME280;39663;45.432;28.050;2022-10-31T01:28:07;101570.52;;;21.73;32.96
52291;BME280;39663;45.432;28.050;2022-10-31T01:28:44;101570.96;;;21.82;33.08
52291;BME280;39663;45.432;28.050;2022-10-31T01:29:16;101572.95;;;22.16;32.99
52291;BME280;39663;45.432;28.050;2022-10-31T01:29:47;101573.29;;;21.94;32.97
52291;BME280;39663;45.432;28.050;2022-10-31T01:30:18;101572.44;;;22.20;32.98
52291;BME280;39663;45.432;28.050;2022-10-31T01:30:50;101574.67;;;21.75;33.01
52291;BME280;39663;45.432;28.050;2022-10-31T01:31:23;101573.63;;;22.10;33.01
52291;BME280;39663;45.432;28.050;2022-10-31T01:31:55;101573.45;;;22.27;32.92
52291;BME280;39663;45.432;28.050;2022-10-31T01:32:27;101572.50;;;22.40;32.97
52291;BME280;39663;45.432;28.050;2022-10-31T01:32:58;101573.51;;;21.99;32.97
52291;BME280;39663;45.432;28.050;2022-10-31T01:33:30;101570.96;;;22.05;32.89
52291;BME280;39663;45.432;28.050;2022-10-31T01:34:02;101569.60;;;22.08;32.89
52291;BME280;39663;45.432;28.050;2022-10-31T01:34:34;101570.52;;;22.09;32.86
52291;BME280;39663;45.432;28.050;2022-10-31T01:35:06;101568.66;;;22.30;32.89
52291;BME280;39663;45.432;28.050;2022-10-31T01:35:37;101569.94;;;22.38;32.83
52291;BME280;39663;45.432;28.050;2022-10-31T01:36:14;101568.03;;;22.39;32.76
52291;BME280;39663;45.432;28.050;2022-10-31T01:36:46;101568.82;;;22.32;32.82
52291;BME280;39663;45.432;28.050;2022-10-31T01:37:18;101569.30;;;22.16;32.85
52291;BME280;39663;45.432;28.050;2022-10-31T01:37:49;101569.33;;;22.17;32.84
52291;BME280;39663;45.432;28.050;2022-10-31T01:38:21;101569.67;;;22.07;32.87
52291;BME280;39663;45.432;28.050;2022-10-31T01:38:55;101569.41;;;22.25;32.86
52291;BME280;39663;45.432;28.050;2022-10-31T01:39:26;101568.39;;;22.19;32.85
52291;BME280;39663;45.432;28.050;2022-10-31T01:39:58;101568.82;;;22.23;32.93
52291;BME280;39663;45.432;28.050;2022-10-31T01:40:29;101565.73;;;22.12;32.81
52291;BME280;39663;45.432;28.050;2022-10-31T01:41:01;101567.83;;;22.32;32.83
52291;BME280;39663;45.432;28.050;2022-10-31T01:41:35;101567.34;;;21.63;33.30
52291;BME280;39663;45.432;28.050;2022-10-31T01:42:09;101569.51;;;22.04;33.33
52291;BME280;39663;45.432;28.050;2022-10-31T01:42:46;101568.36;;;22.14;33.19
52291;BME280;39663;45.432;28.050;2022-10-31T01:43:19;101574.57;;;21.99;33.15
52291;BME280;39663;45.432;28.050;2022-10-31T01:43:53;101572.08;;;21.81;33.07
52291;BME280;39663;45.432;28.050;2022-10-31T01:44:59;101570.52;;;22.12;32.97
52291;BME280;39663;45.432;28.050;2022-10-31T01:45:32;101569.64;;;22.16;32.98
52291;BME280;39663;45.432;28.050;2022-10-31T01:46:03;101571.12;;;22.00;32.93
52291;BME280;39663;45.432;28.050;2022-10-31T01:46:40;101574.97;;;22.09;33.34
52291;BME280;39663;45.432;28.050;2022-10-31T01:47:15;101572.32;;;21.26;33.83
52291;BME280;39663;45.432;28.050;2022-10-31T01:47:49;101572.71;;;21.34;33.80
52291;BME280;39663;45.432;28.050;2022-10-31T01:48:30;101572.88;;;21.54;33.52
52291;BME280;39663;45.432;28.050;2022-10-31T01:49:04;101571.14;;;22.08;33.37
52291;BME280;39663;45.432;28.050;2022-10-31T01:49:39;101572.54;;;22.04;33.34
52291;BME280;39663;45.432;28.050;2022-10-31T01:50:28;101570.67;;;22.01;33.42
52291;BME280;39663;45.432;28.050;2022-10-31T01:51:03;101571.34;;;21.95;33.33
52291;BME280;39663;45.432;28.050;2022-10-31T01:51:38;101572.10;;;21.96;33.29
52291;BME280;39663;45.432;28.050;2022-10-31T01:52:13;101570.56;;;21.73;33.47
52291;BME280;39663;45.432;28.050;2022-10-31T01:52:49;101569.66;;;22.05;33.37
52291;BME280;39663;45.432;28.050;2022-10-31T01:53:23;101571.32;;;21.93;33.30
52291;BME280;39663;45.432;28.050;2022-10-31T01:53:56;101570.42;;;21.97;33.26
52291;BME280;39663;45.432;28.050;2022-10-31T01:54:33;101572.69;;;22.00;33.28
52291;BME280;39663;45.432;28.050;2022-10-31T01:55:10;101571.62;;;22.04;33.48
52291;BME280;39663;45.432;28.050;2022-10-31T01:55:44;101569.30;;;21.77;33.53
52291;BME280;39663;45.432;28.050;2022-10-31T01:56:18;101570.60;;;21.85;33.47
52291;BME280;39663;45.432;28.050;2022-10-31T01:56:51;101569.16;;;22.01;33.47
52291;BME280;39663;45.432;28.050;2022-10-31T01:57:25;101570.69;;;22.11;33.44
52291;BME280;39663;45.432;28.050;2022-10-31T01:58:02;101569.74;;;22.14;33.43
52291;BME280;39663;45.432;28.050;2022-10-31T01:58:35;101570.87;;;21.81;33.43
52291;BME280;39663;45.432;28.050;2022-10-31T01:59:10;101570.80;;;21.90;33.38
52291;BME280;39663;45.432;28.050;2022-10-31T01:59:47;101569.59;;;22.09;33.34
52291;BME280;39663;45.432;28.050;2022-10-31T02:00:20;101570.92;;;21.93;33.38
52291;BME280;39663;45.432;28.050;2022-10-31T02:00:55;101569.45;;;22.06;33.46
52291;BME280;39663;45.432;28.050;2022-10-31T02:01:28;101569.12;;;21.97;33.37
52291;BME280;39663;45.432;28.050;2022-10-31T02:02:00;101569.07;;;21.85;33.38
52291;BME280;39663;45.432;28.050;2022-10-31T02:02:32;101569.05;;;21.87;33.46
52291;BME280;39663;45.432;28.050;2022-10-31T02:03:04;101566.22;;;21.92;33.61
52291;BME280;39663;45.432;28.050;2022-10-31T02:03:35;101566.65;;;21.96;33.58
52291;BME280;39663;45.432;28.050;2022-10-31T02:04:07;101566.56;;;22.07;33.49
52291;BME280;39663;45.432;28.050;2022-10-31T02:04:39;101567.96;;;21.67;33.47
52291;BME280;39663;45.432;28.050;2022-10-31T02:05:17;101568.43;;;21.90;33.55
52291;BME280;39663;45.432;28.050;2022-10-31T02:05:50;101568.88;;;22.21;33.47
52291;BME280;39663;45.432;28.050;2022-10-31T02:06:29;101568.78;;;22.03;33.52
52291;BME280;39663;45.432;28.050;2022-10-31T02:07:07;101567.96;;;21.65;33.67
52291;BME280;39663;45.432;28.050;2022-10-31T02:07:45;101568.87;;;21.95;33.59
52291;BME280;39663;45.432;28.050;2022-10-31T02:08:23;101567.69;;;21.97;33.55
52291;BME280;39663;45.432;28.050;2022-10-31T02:08:57;101568.81;;;22.00;33.55
52291;BME280;39663;45.432;28.050;2022-10-31T02:09:31;101568.99;;;22.00;33.49
52291;BME280;39663;45.432;28.050;2022-10-31T02:10:03;101571.52;;;22.02;33.42
52291;BME280;39663;45.432;28.050;2022-10-31T02:10:36;101569.94;;;22.03;33.46
52291;BME280;39663;45.432;28.050;2022-10-31T02:11:08;101570.21;;;21.91;33.55
52291;BME280;39663;45.432;28.050;2022-10-31T02:11:41;101570.37;;;21.91;33.62
52291;BME280;39663;45.432;28.050;2022-10-31T02:12:13;101571.51;;;21.76;33.74
52291;BME280;39663;45.432;28.050;2022-10-31T02:12:46;101571.66;;;21.67;33.89
52291;BME280;39663;45.432;28.050;2022-10-31T02:13:18;101573.64;;;21.62;33.99
52291;BME280;39663;45.432;28.050;2022-10-31T02:13:51;101573.96;;;21.56;34.06
52291;BME280;39663;45.432;28.050;2022-10-31T02:14:24;101574.19;;;21.57;34.07
52291;BME280;39663;45.432;28.050;2022-10-31T02:14:56;101576.49;;;21.80;34.02
52291;BME280;39663;45.432;28.050;2022-10-31T02:15:29;101575.58;;;21.44;34.19
52291;BME280;39663;45.432;28.050;2022-10-31T02:16:01;101574.06;;;21.48;34.18
52291;BME280;39663;45.432;28.050;2022-10-31T02:16:32;101575.96;;;21.56;34.15
52291;BME280;39663;45.432;28.050;2022-10-31T02:17:04;101576.21;;;21.49;34.21
52291;BME280;39663;45.432;28.050;2022-10-31T02:17:35;101576.31;;;21.42;34.27
52291;BME280;39663;45.432;28.050;2022-10-31T02:18:07;101576.66;;;21.67;34.21
52291;BME280;39663;45.432;28.050;2022-10-31T02:18:39;101576.55;;;21.52;34.09
52291;BME280;39663;45.432;28.050;2022-10-31T02:19:13;101577.97;;;21.59;34.09
52291;BME280;39663;45.432;28.050;2022-10-31T02:19:56;101577.15;;;21.61;33.97
52291;BME280;39663;45.432;28.050;2022-10-31T02:20:35;101578.25;;;21.83;33.97
52291;BME280;39663;45.432;28.050;2022-10-31T02:21:15;101579.88;;;21.57;34.06
52291;BME280;39663;45.432;28.050;2022-10-31T02:21:53;101580.58;;;21.57;34.04
52291;BME280;39663;45.432;28.050;2022-10-31T02:22:34;101580.64;;;21.64;33.96
52291;BME280;39663;45.432;28.050;2022-10-31T02:23:36;101581.41;;;21.67;33.88
52291;BME280;39663;45.432;28.050;2022-10-31T02:24:43;101582.06;;;21.69;33.86
52291;BME280;39663;45.432;28.050;2022-10-31T02:25:28;101582.45;;;21.87;33.88
52291;BME280;39663;45.432;28.050;2022-10-31T02:26:21;101585.27;;;21.52;33.86
52291;BME280;39663;45.432;28.050;2022-10-31T02:27:07;101585.79;;;21.90;33.85
52291;BME280;39663;45.432;28.050;2022-10-31T02:27:53;101585.85;;;21.71;33.88
52291;BME280;39663;45.432;28.050;2022-10-31T02:28:41;101584.25;;;21.61;33.73
52291;BME280;39663;45.432;28.050;2022-10-31T02:29:53;101584.71;;;21.75;33.79
52291;BME280;39663;45.432;28.050;2022-10-31T02:30:32;101585.10;;;21.76;33.78
52291;BME280;39663;45.432;28.050;2022-10-31T02:31:18;101585.61;;;21.85;33.63
52291;BME280;39663;45.432;28.050;2022-10-31T02:31:58;101586.38;;;21.76;33.78
52291;BME280;39663;45.432;28.050;2022-10-31T02:32:38;101585.91;;;21.53;33.80
52291;BME280;39663;45.432;28.050;2022-10-31T02:33:21;101585.53;;;21.76;33.78
52291;BME280;39663;45.432;28.050;2022-10-31T02:33:59;101586.66;;;21.74;33.66
52291;BME280;39663;45.432;28.050;2022-10-31T02:34:36;101586.25;;;21.82;33.69
52291;BME280;39663;45.432;28.050;2022-10-31T02:35:16;101586.53;;;21.77;33.71
52291;BME280;39663;45.432;28.050;2022-10-31T02:36:03;101586.45;;;21.67;33.82
52291;BME280;39663;45.432;28.050;2022-10-31T02:36:42;101586.18;;;21.51;34.10
52291;BME280;39663;45.432;28.050;2022-10-31T02:37:22;101585.34;;;21.52;34.03
52291;BME280;39663;45.432;28.050;2022-10-31T02:38:02;101588.09;;;21.78;34.00
52291;BME280;39663;45.432;28.050;2022-10-31T02:38:42;101586.85;;;21.44;33.93
52291;BME280;39663;45.432;28.050;2022-10-31T02:39:23;101589.71;;;21.63;33.94
52291;BME280;39663;45.432;28.050;2022-10-31T02:40:04;101588.88;;;21.60;33.95
52291;BME280;39663;45.432;28.050;2022-10-31T02:40:43;101589.30;;;21.68;33.94
52291;BME280;39663;45.432;28.050;2022-10-31T02:41:26;101591.48;;;21.65;33.91
52291;BME280;39663;45.432;28.050;2022-10-31T02:42:08;101591.83;;;21.48;33.90
52291;BME280;39663;45.432;28.050;2022-10-31T02:42:46;101591.78;;;21.74;33.85
52291;BME280;39663;45.432;28.050;2022-10-31T02:43:27;101592.14;;;21.50;33.83
52291;BME280;39663;45.432;28.050;2022-10-31T02:44:05;101592.72;;;21.77;33.79
52291;BME280;39663;45.432;28.050;2022-10-31T02:44:42;101590.28;;;21.75;33.73
52291;BME280;39663;45.432;28.050;2022-10-31T02:45:22;101591.61;;;21.54;33.76
52291;BME280;39663;45.432;28.050;2022-10-31T02:46:00;101591.28;;;21.86;33.86
52291;BME280;39663;45.432;28.050;2022-10-31T02:46:38;101592.38;;;21.73;34.08
52291;BME280;39663;45.432;28.050;2022-10-31T02:47:14;101592.64;;;21.71;34.13
52291;BME280;39663;45.432;28.050;2022-10-31T02:47:47;101593.94;;;21.31;34.14
52291;BME280;39663;45.432;28.050;2022-10-31T02:48:23;101593.54;;;21.54;34.06
52291;BME280;39663;45.432;28.050;2022-10-31T02:49:03;101591.87;;;21.51;34.10
52291;BME280;39663;45.432;28.050;2022-10-31T02:49:40;101592.25;;;21.59;33.98
52291;BME280;39663;45.432;28.050;2022-10-31T02:50:19;101591.66;;;21.64;33.85
52291;BME280;39663;45.432;28.050;2022-10-31T02:50:57;101592.30;;;21.67;33.81
52291;BME280;39663;45.432;28.050;2022-10-31T02:51:29;101592.93;;;21.65;33.87
52291;BME280;39663;45.432;28.050;2022-10-31T02:52:00;101593.09;;;21.68;33.84
52291;BME280;39663;45.432;28.050;2022-10-31T02:52:33;101594.62;;;21.59;33.92
52291;BME280;39663;45.432;28.050;2022-10-31T02:53:05;101594.86;;;21.69;33.91
52291;BME280;39663;45.432;28.050;2022-10-31T02:53:37;101592.28;;;21.56;33.89
52291;BME280;39663;45.432;28.050;2022-10-31T02:54:18;101592.58;;;21.56;34.00
52291;BME280;39663;45.432;28.050;2022-10-31T02:54:51;101592.71;;;21.48;34.05
52291;BME280;39663;45.432;28.050;2022-10-31T02:55:58;101591.86;;;21.49;34.03
52291;BME280;39663;45.432;28.050;2022-10-31T02:56:31;101590.58;;;21.28;34.08
52291;BME280;39663;45.432;28.050;2022-10-31T02:57:05;101588.28;;;21.30;34.08
52291;BME280;39663;45.432;28.050;2022-10-31T02:57:39;101590.47;;;21.55;33.97
52291;BME280;39663;45.432;28.050;2022-10-31T02:58:14;101588.46;;;21.56;33.96
52291;BME280;39663;45.432;28.050;2022-10-31T02:58:49;101588.95;;;21.61;34.12
52291;BME280;39663;45.432;28.050;2022-10-31T02:59:23;101588.82;;;21.58;34.29
52291;BME280;39663;45.432;28.050;2022-10-31T02:59:59;101587.52;;;21.34;34.28
52291;BME280;39663;45.432;28.050;2022-10-31T03:00:37;101587.27;;;21.70;34.21
52291;BME280;39663;45.432;28.050;2022-10-31T03:01:26;101586.71;;;21.60;34.19
52291;BME280;39663;45.432;28.050;2022-10-31T03:02:18;101587.97;;;21.68;34.05
52291;BME280;39663;45.432;28.050;2022-10-31T03:03:00;101586.37;;;21.31;34.31
52291;BME280;39663;45.432;28.050;2022-10-31T03:03:41;101587.89;;;21.47;34.14
52291;BME280;39663;45.432;28.050;2022-10-31T03:04:30;101589.13;;;21.52;34.00
52291;BME280;39663;45.432;28.050;2022-10-31T03:05:19;101588.17;;;21.33;34.27
52291;BME280;39663;45.432;28.050;2022-10-31T03:05:58;101585.90;;;21.22;34.42
52291;BME280;39663;45.432;28.050;2022-10-31T03:06:34;101585.27;;;21.37;34.37
52291;BME280;39663;45.432;28.050;2022-10-31T03:07:14;101584.48;;;21.27;34.29
52291;BME280;39663;45.432;28.050;2022-10-31T03:07:54;101583.58;;;21.33;34.41
52291;BME280;39663;45.432;28.050;2022-10-31T03:08:32;101584.55;;;21.12;34.41
52291;BME280;39663;45.432;28.050;2022-10-31T03:09:11;101585.09;;;21.03;34.35
52291;BME280;39663;45.432;28.050;2022-10-31T03:09:51;101583.70;;;21.26;34.48